Point Pleasant, WV

6:04 AM EDT on May 25, 2017 (GMT -0400)
Point Pleasant

Weather History for K3I2 - April, 2013

Change the Weather History Date:

Sunday, April 21, 2013

  Actual Average (KHTS) Record (KHTS)
Temperature  
Mean Temperature 46 °F -  
Max Temperature 60 °F 66 °F 92 °F (1985)
Min Temperature 32 °F 44 °F 26 °F (1956)
Degree Days  
Heating Degree Days 19    
Moisture  
Dew Point 26 °F    
Average Humidity 48    
Maximum Humidity 93    
Minimum Humidity 22    
Precipitation  
Precipitation 0.00 in - - ()
Sea Level Pressure  
Sea Level Pressure 30.46 in    
Wind  
Wind Speed 2 mph (ENE)    
Max Wind Speed 12 mph    
Max Gust Speed 16 mph    
Visibility 10 miles    
Events      
Averages and records for this station are not official NWS values.
T = Trace of Precipitation, MM = Missing Value Source: NWS Daily Summary

Daily Weather History Graph

Daily Weather History Graph

Search for Another Location

Airport or City:

Trip Planner

Search our weather history database for the weather conditions in past years. The results will help you decide how hot, cold, wet, or windy it might be!

Date:

Astronomy

Apr. 21, 2013 Rise Set
Actual Time 6:43 AM EDT 8:11 PM EDT
Civil Twilight 6:15 AM EDT 8:39 PM EDT
Nautical Twilight 5:41 AM EDT 9:13 PM EDT
Astronomical Twilight 5:06 AM EDT 9:49 PM EDT
Moon 3:57 PM EDT (4/21) 4:02 AM EDT (4/21)
Length of Visible Light 14h 24m
Length of Day
13h 28m
Waxing Gibbous, 79% of the Moon is Illuminated
Apr 21
Waxing Gibbous
Apr 25
Full
May 2
Last Quarter
May 9
New
May 18
First Quarter

Hourly Weather History & Observations

Time (EDT) Temp. Windchill Dew Point Humidity Pressure Visibility Wind Dir Wind Speed Gust Speed Precip Events Conditions
12:15 AM 35.6 °F - 28.4 °F 75% 30.42 in 10.0 mi Calm Calm - N/A   Clear
12:35 AM 35.6 °F - 28.4 °F 75% 30.43 in 10.0 mi Calm Calm - N/A   Clear
12:55 AM 35.6 °F - 28.4 °F 75% 30.43 in 10.0 mi Calm Calm - N/A   Clear
1:15 AM 35.6 °F - 28.4 °F 75% 30.44 in 10.0 mi Calm Calm - N/A   Clear
1:35 AM 35.6 °F - 28.4 °F 75% 30.44 in 10.0 mi Calm Calm - N/A   Clear
1:55 AM 33.8 °F - 28.4 °F 81% 30.44 in 10.0 mi Calm Calm - N/A   Clear
2:15 AM 33.8 °F - 28.4 °F 81% 30.44 in 10.0 mi Calm Calm - N/A   Clear
2:35 AM 33.8 °F - 28.4 °F 81% 30.45 in 10.0 mi Calm Calm - N/A   Clear
5:15 AM 32.0 °F - 30.2 °F 93% 30.47 in 10.0 mi Calm Calm - N/A   Clear
5:35 AM 32.0 °F - 30.2 °F 93% 30.48 in 10.0 mi Calm Calm - N/A   Clear
5:55 AM 32.0 °F - 30.2 °F 93% 30.49 in 10.0 mi Calm Calm - N/A   Clear
6:15 AM 32.0 °F - 30.2 °F 93% 30.49 in 10.0 mi Calm Calm - N/A   Clear
6:35 AM 32.0 °F - 30.2 °F 93% 30.50 in 10.0 mi Calm Calm - N/A   Clear
6:55 AM 32.0 °F - 28.4 °F 87% 30.51 in 10.0 mi Calm Calm - N/A   Clear
7:15 AM 32.0 °F - 30.2 °F 93% 30.52 in 10.0 mi Calm Calm - N/A   Clear
7:35 AM 33.8 °F - 30.2 °F 87% 30.52 in 10.0 mi Calm Calm - N/A   Clear
7:55 AM 33.8 °F - 30.2 °F 87% 30.54 in 10.0 mi Calm Calm - N/A   Clear
8:15 AM 35.6 °F - 32.0 °F 87% 30.54 in 10.0 mi Calm Calm - N/A   Clear
8:35 AM 39.2 °F 37.0 °F 30.2 °F 70% 30.54 in 10.0 mi ENE 3.5 mph - N/A   Clear
8:55 AM 41.0 °F 38.0 °F 30.2 °F 65% 30.55 in 10.0 mi East 4.6 mph - N/A   Clear
9:15 AM 42.8 °F 38.6 °F 30.2 °F 61% 30.55 in 10.0 mi East 6.9 mph - N/A   Clear
9:35 AM 44.6 °F 41.4 °F 30.2 °F 57% 30.55 in 10.0 mi ENE 5.8 mph - N/A   Clear
9:55 AM 46.4 °F 42.9 °F 30.2 °F 53% 30.55 in 10.0 mi ENE 6.9 mph - N/A   Clear
10:15 AM 50.0 °F - 28.4 °F 43% 30.55 in 10.0 mi East 6.9 mph - N/A   Clear
10:35 AM 50.0 °F - 28.4 °F 43% 30.56 in 10.0 mi East 8.1 mph - N/A   Clear
10:55 AM 51.8 °F - 26.6 °F 38% 30.56 in 10.0 mi ESE 9.2 mph - N/A   Clear
11:15 AM 51.8 °F - 26.6 °F 38% 30.56 in 10.0 mi East 9.2 mph - N/A   Clear
11:35 AM 53.6 °F - 28.4 °F 38% 30.55 in 10.0 mi North 4.6 mph - N/A   Clear
11:55 AM 53.6 °F - 26.6 °F 35% 30.54 in 10.0 mi East 9.2 mph - N/A   Clear
12:15 PM 55.4 °F - 26.6 °F 33% 30.53 in 10.0 mi ESE 6.9 mph - N/A   Clear
12:35 PM 57.2 °F - 26.6 °F 31% 30.53 in 10.0 mi East 9.2 mph - N/A   Clear
12:55 PM 55.4 °F - 26.6 °F 33% 30.52 in 10.0 mi ENE 6.9 mph - N/A   Clear
1:15 PM 55.4 °F - 24.8 °F 31% 30.51 in 10.0 mi ENE 5.8 mph - N/A   Clear
1:35 PM 59.0 °F - 26.6 °F 29% 30.49 in 10.0 mi ENE 8.1 mph - N/A   Clear
1:55 PM 59.0 °F - 23.0 °F 25% 30.48 in 10.0 mi ENE 4.6 mph - N/A   Clear
2:15 PM 59.0 °F - 24.8 °F 27% 30.47 in 10.0 mi ENE 6.9 mph - N/A   Clear
2:35 PM 60.8 °F - 24.8 °F 25% 30.46 in 10.0 mi ENE 9.2 mph - N/A   Clear
2:55 PM 60.8 °F - 23.0 °F 23% 30.46 in 10.0 mi Calm Calm - N/A   Clear
3:15 PM 60.8 °F - 24.8 °F 25% 30.45 in 10.0 mi NE 5.8 mph - N/A   Clear
3:35 PM 60.8 °F - 23.0 °F 23% 30.44 in 10.0 mi NE 6.9 mph - N/A   Clear
3:55 PM 60.8 °F - 23.0 °F 23% 30.43 in 10.0 mi East 8.1 mph - N/A   Clear
4:15 PM 60.8 °F - 23.0 °F 23% 30.43 in 10.0 mi East 3.5 mph - N/A   Clear
4:35 PM 60.8 °F - 23.0 °F 23% 30.42 in 10.0 mi East 11.5 mph 16.1 mph N/A   Clear
4:55 PM 60.8 °F - 21.2 °F 22% 30.41 in 10.0 mi East 3.5 mph - N/A   Clear
5:15 PM 60.8 °F - 21.2 °F 22% 30.41 in 10.0 mi East 3.5 mph - N/A   Clear
5:35 PM 60.8 °F - 24.8 °F 25% 30.40 in 10.0 mi East 3.5 mph - N/A   Clear
5:55 PM 60.8 °F - 21.2 °F 22% 30.40 in 10.0 mi East 3.5 mph - N/A   Clear
6:15 PM 60.8 °F - 21.2 °F 22% 30.40 in 10.0 mi ENE 6.9 mph - N/A   Clear
6:35 PM 59.0 °F - 21.2 °F 23% 30.40 in 10.0 mi East 3.5 mph - N/A   Clear
6:55 PM 59.0 °F - 23.0 °F 25% 30.39 in 10.0 mi NNE 4.6 mph - N/A   Clear
7:15 PM 59.0 °F - 23.0 °F 25% 30.39 in 10.0 mi NE 4.6 mph - N/A   Clear
7:35 PM 57.2 °F - 23.0 °F 27% 30.39 in 10.0 mi Calm Calm - N/A   Clear
7:55 PM 55.4 °F - 23.0 °F 29% 30.39 in 10.0 mi NNE 3.5 mph - N/A   Clear
8:15 PM 55.4 °F - 23.0 °F 29% 30.39 in 10.0 mi Calm Calm - N/A   Clear
8:35 PM 53.6 °F - 23.0 °F 30% 30.39 in 10.0 mi Calm Calm - N/A   Clear
8:55 PM 53.6 °F - 23.0 °F 30% 30.40 in 10.0 mi Calm Calm - N/A   Clear
9:15 PM 51.8 °F - 23.0 °F 33% 30.40 in 10.0 mi ENE 3.5 mph - N/A   Clear
9:35 PM 51.8 °F - 23.0 °F 33% 30.41 in 10.0 mi ENE 4.6 mph - N/A   Clear
9:55 PM 51.8 °F - 21.2 °F 30% 30.41 in 10.0 mi ENE 3.5 mph - N/A   Clear
10:15 PM 50.0 °F - 23.0 °F 35% 30.42 in 10.0 mi Calm Calm - N/A   Clear
10:35 PM 50.0 °F - 23.0 °F 35% 30.42 in 10.0 mi Calm Calm - N/A   Clear
10:55 PM 46.4 °F - 26.6 °F 46% 30.41 in 10.0 mi Calm Calm - N/A   Clear
11:15 PM 44.6 °F - 26.6 °F 49% 30.41 in 10.0 mi Calm Calm - N/A   Clear
11:35 PM 42.8 °F - 26.6 °F 53% 30.41 in 10.0 mi Calm Calm - N/A   Clear
11:55 PM 42.8 °F - 24.8 °F 49% 30.40 in 10.0 mi Calm Calm - N/A   Clear